Accueil
METAR-TAF:

METAR-TAF

Aéroports :

Siegen, Allemagne

latitude: 50-42-28N, longitude: 008-04-59E, altitude: 602 m

Observation

Le bulletin a été fait il y a 34 minutes, à 15:20 UTC
Vent 12 kt de ouest/sud-ouest
Température 19°C
Humidité 68%
Pression 1013 hPa
Visibilité 10 km ou plus
Nuages épars à une hauteur de 2400 ft

METAR: EDGS 281520Z 24012KT 9999 SCT024 19/13 Q1013

Heure: 17:54 (15:54 UTC)

Prévision

Le bulletin a été fait il y a 1 heure et 54 minutes, à 14:00 UTC
Prévision valable du 28 à 15 UTC au 28 à 24 UTC
Vent 8 kt de sud-ouest
Visibilité 10 km ou plus
Nuages épars à une hauteur de 3000 ft
Temporairement
du 28 à 15 UTC au 28 à 18 UTC
Vent 13 kt de sud-ouest

TAF: EDGS 281400Z 2815/2824 23008KT 9999 SCT030 TEMPO 2815/2818 23013KT

Observations et prévisions météorologiques de plus de 4000 aéroports (messages METAR et TAF).

Les stations disponibles sont représentées par des disques jaunes et rouges sur la carte.

Passer la souris dessus pour voir le nom de la station.

Cliquer dessus pour voir les observations et prévisions météorologiques.

Pour changer de carte: cliquez sur les boutons verts avec une croix noire pour zoomer, sur le bouton vert avec un tiret pour effectuer un zoom arrière, ou sur les flèches vertes pour les cartes adjacentes.


METAR-TAF: